Carnival Liberty — HPYE — position and weather

sailwx.info

Track history (hours):
 
Tides and Currents Weather Stations Pressure Air Temp Water Temp Dewpoint Dewpoint Depression Visibility Wind Speed Wind Dir Waves Ship Positions

Carnival Liberty

Last reported at 2017-Jan-19 04:29 UTC. Time now 2017-Jan-19 21:20 UTC.
Position N 27°17' W 079°46'.

Type: Ship. MMSI: 371083000.

Date/timePositionNaut miles runAvg speedWind from/ knotsBaromVisibWave heightAir tempDewpointWater temp
2017-Jan-19 04:29N 27°17' W 079°46'1415.5
2017-Jan-19 03:33N 27°03' W 079°44'2914.5
2017-Jan-19 01:33N 26°35' W 079°37'1413.8
2017-Jan-19 00:33N 26°21' W 079°34'1313.3
2017-Jan-18 23:33N 26°08' W 079°31'1312.9
2017-Jan-18 22:33N 25°56' W 079°36'8 8.1
2017-Jan-18 21:33N 25°48' W 079°35'1010.0
2017-Jan-18 20:32N 25°57' W 079°30'1010.2
2017-Jan-18 19:31N 26°07' W 079°25'83 7.9
2017-Jan-18 09:00N 25°54' W 077°54'   200 / 51020.010.8 20.016.722.0
2017-Jan-15 22:08N 28°24' W 080°34'3 4.7
2017-Jan-15 21:32N 28°25' W 080°37'0 0.0
2017-Jan-15 12:11N 28°25' W 080°38'10 5.6
2017-Jan-15 10:23N 28°19' W 080°28'911.4
2017-Jan-15 09:33N 28°12' W 080°21'8410.4
2017-Jan-15 01:27N 26°57' W 079°39'1910.1
2017-Jan-14 23:34N 26°38' W 079°41'11 8.0
2017-Jan-14 22:09N 26°27' W 079°40'610.1
2017-Jan-14 21:34N 26°21' W 079°42'9 9.3
2017-Jan-14 20:33N 26°12' W 079°44'9 9.3
2017-Jan-14 19:34N 26°06' W 079°37'9 9.1
2017-Jan-14 18:34N 25°59' W 079°31'7 6.4
2017-Jan-14 17:32N 26°04' W 079°27'56 1.5
2017-Jan-13 04:17N 26°59' W 079°32'93 5.2
2017-Jan-12 10:18N 28°18' W 080°27'7513.0
2017-Jan-12 04:34N 27°12' W 079°49'1615.6
2017-Jan-12 03:33N 26°56' W 079°47'1815.1
2017-Jan-12 02:22N 26°38' W 079°45'1214.6
2017-Jan-12 01:34N 26°27' W 079°43'1414.2
2017-Jan-12 00:34N 26°13' W 079°41'1413.6
2017-Jan-11 23:34N 25°59' W 079°39'1313.4
2017-Jan-11 22:34N 25°46' W 079°38'6 6.1
2017-Jan-11 21:34N 25°40' W 079°38'1010.2
2017-Jan-11 20:33N 25°49' W 079°33'1110.6
2017-Jan-11 19:33N 25°59' W 079°29'1110.6
2017-Jan-11 18:32N 26°08' W 079°23'109 3.3
2017-Jan-10 09:00N 25°30' W 077°30'   050 / 251026.010.8 18.014.620.0
Track history (hours):
 
Tides and Currents Weather Stations Pressure Air Temp Water Temp Dewpoint Dewpoint Depression Visibility Wind Speed Wind Dir Waves Ship Positions

Carnival Liberty

Last reported at 2017-Jan-19 04:29 UTC. Time now 2017-Jan-19 21:20 UTC.
Position N 27°17' W 079°46'.

Type: Ship. MMSI: 371083000.

Date/timePositionNaut miles runAvg speedWind from/ knotsBaromVisibWave heightAir tempDewpointWater temp
2017-Jan-19 04:29N 27°17' W 079°46'1415.5
2017-Jan-19 03:33N 27°03' W 079°44'2914.5
2017-Jan-19 01:33N 26°35' W 079°37'1413.8
2017-Jan-19 00:33N 26°21' W 079°34'1313.3
2017-Jan-18 23:33N 26°08' W 079°31'1312.9
2017-Jan-18 22:33N 25°56' W 079°36'8 8.1
2017-Jan-18 21:33N 25°48' W 079°35'1010.0
2017-Jan-18 20:32N 25°57' W 079°30'1010.2
2017-Jan-18 19:31N 26°07' W 079°25'83 7.9
2017-Jan-18 09:00N 25°54' W 077°54'   200 / 51020.010.8 20.016.722.0
2017-Jan-15 22:08N 28°24' W 080°34'3 4.7
2017-Jan-15 21:32N 28°25' W 080°37'0 0.0
2017-Jan-15 12:11N 28°25' W 080°38'10 5.6
2017-Jan-15 10:23N 28°19' W 080°28'911.4
2017-Jan-15 09:33N 28°12' W 080°21'8410.4
2017-Jan-15 01:27N 26°57' W 079°39'1910.1
2017-Jan-14 23:34N 26°38' W 079°41'11 8.0
2017-Jan-14 22:09N 26°27' W 079°40'610.1
2017-Jan-14 21:34N 26°21' W 079°42'9 9.3
2017-Jan-14 20:33N 26°12' W 079°44'9 9.3
2017-Jan-14 19:34N 26°06' W 079°37'9 9.1
2017-Jan-14 18:34N 25°59' W 079°31'7 6.4
2017-Jan-14 17:32N 26°04' W 079°27'56 1.5
2017-Jan-13 04:17N 26°59' W 079°32'93 5.2
2017-Jan-12 10:18N 28°18' W 080°27'7513.0
2017-Jan-12 04:34N 27°12' W 079°49'1615.6
2017-Jan-12 03:33N 26°56' W 079°47'1815.1
2017-Jan-12 02:22N 26°38' W 079°45'1214.6
2017-Jan-12 01:34N 26°27' W 079°43'1414.2
2017-Jan-12 00:34N 26°13' W 079°41'1413.6
2017-Jan-11 23:34N 25°59' W 079°39'1313.4
2017-Jan-11 22:34N 25°46' W 079°38'6 6.1
2017-Jan-11 21:34N 25°40' W 079°38'1010.2
2017-Jan-11 20:33N 25°49' W 079°33'1110.6
2017-Jan-11 19:33N 25°59' W 079°29'1110.6
2017-Jan-11 18:32N 26°08' W 079°23'109 3.3
2017-Jan-10 09:00N 25°30' W 077°30'   050 / 251026.010.8 18.014.620.0

Dump ship's entire track history